Time;durP1;ratioP1;P1;durP2;ratioP2;P2;SDS_P1;SDS_P2;PMS_P1;PMS_P2;Temp;Humidity;BMP_temperature;BMP_pressure;BME280_temperature;BME280_humidity;BME280_pressure;Samples;Min_cycle;Max_cycle;Signal;HPM_P1;HPM_P2
2021/08/12 00:01:47;;;;;;;11.10;6.80;;;;;;;;;;4884372;29;21049;-83
2021/08/12 00:04:17;;;;;;;10.95;6.47;;;;;;;;;;4886168;29;20057;-84
2021/08/12 00:06:42;;;;;;;11.38;6.93;;;;;;;;;;4863687;29;20584;-83
2021/08/12 00:09:08;;;;;;;12.87;7.53;;;;;;;;;;4885589;29;20027;-83
2021/08/12 00:11:33;;;;;;;13.10;7.07;;;;;;;;;;4887821;29;20625;-83
2021/08/12 00:13:58;;;;;;;9.30;6.27;;;;;;;;;;4878083;29;20115;-83
2021/08/12 00:16:23;;;;;;;10.67;6.37;;;;;;;;;;4885550;29;20280;-82
2021/08/12 00:18:55;;;;;;;10.45;6.38;;;;;;;;;;4875538;29;20037;-82
2021/08/12 00:21:20;;;;;;;11.77;6.35;;;;;;;;;;4887024;29;20420;-82
2021/08/12 00:23:46;;;;;;;7.97;6.00;;;;;;;;;;4887215;29;20130;-82
2021/08/12 00:26:11;;;;;;;9.55;6.00;;;;;;;;;;4871029;29;20048;-82
2021/08/12 00:28:36;;;;;;;10.43;6.25;;;;;;;;;;4884721;29;20021;-82
2021/08/12 00:31:02;;;;;;;11.93;6.97;;;;;;;;;;4880258;29;20029;-82
2021/08/12 00:33:27;;;;;;;9.88;6.00;;;;;;;;;;4884902;29;20277;-82
2021/08/12 00:35:53;;;;;;;10.43;7.13;;;;;;;;;;4874800;29;20036;-83
2021/08/12 00:38:18;;;;;;;9.00;6.18;;;;;;;;;;4883056;29;20080;-83
2021/08/12 00:40:43;;;;;;;7.87;5.73;;;;;;;;;;4878307;29;20025;-85
2021/08/12 00:43:10;;;;;;;14.77;7.10;;;;;;;;;;4883191;29;20124;-84
2021/08/12 00:45:35;;;;;;;13.68;7.32;;;;;;;;;;4890924;29;20384;-83
2021/08/12 00:48:00;;;;;;;14.40;6.23;;;;;;;;;;4887410;29;20021;-83
2021/08/12 00:50:25;;;;;;;11.77;6.57;;;;;;;;;;4883426;29;20028;-83
2021/08/12 00:52:51;;;;;;;10.83;6.20;;;;;;;;;;4869322;29;20288;-82
2021/08/12 00:55:16;;;;;;;12.48;6.68;;;;;;;;;;4889237;29;20692;-82
2021/08/12 00:57:42;;;;;;;10.02;5.82;;;;;;;;;;4886735;29;20092;-81
2021/08/12 01:00:07;;;;;;;9.87;6.33;;;;;;;;;;4882309;29;20033;-81
2021/08/12 01:02:33;;;;;;;8.98;5.75;;;;;;;;;;4886900;29;20284;-82
2021/08/12 01:04:58;;;;;;;15.25;7.13;;;;;;;;;;4883104;29;20024;-82
2021/08/12 01:07:27;;;;;;;9.10;6.70;;;;;;;;;;4882723;29;20031;-82
2021/08/12 01:10:03;;;;;;;12.25;6.10;;;;;;;;;;4889719;29;20392;-81
2021/08/12 01:12:42;;;;;;;16.23;6.30;;;;;;;;;;4878926;29;20033;-83
2021/08/12 01:15:10;;;;;;;13.85;6.78;;;;;;;;;;4884029;29;20084;-82
2021/08/12 01:17:47;;;;;;;10.70;6.40;;;;;;;;;;4889522;29;20174;-84
2021/08/12 01:20:18;;;;;;;10.57;5.68;;;;;;;;;;4883820;29;20385;-82
2021/08/12 01:22:48;;;;;;;11.32;6.47;;;;;;;;;;4882827;29;20390;-82
2021/08/12 01:25:17;;;;;;;10.43;5.80;;;;;;;;;;4880943;29;20481;-82
2021/08/12 01:27:46;;;;;;;8.27;5.30;;;;;;;;;;4883052;29;20242;-82
2021/08/12 01:30:14;;;;;;;;;;;;;;;;;;4885411;29;20123;-83
2021/08/12 01:32:58;;;;;;;8.82;6.25;;;;;;;;;;4884650;29;19912;-82
2021/08/12 01:35:23;;;;;;;10.43;5.40;;;;;;;;;;4883088;29;20380;-82
2021/08/12 01:37:49;;;;;;;11.23;6.93;;;;;;;;;;4882619;29;20085;-82
2021/08/12 01:40:16;;;;;;;11.27;6.23;;;;;;;;;;4885603;29;20052;-82
2021/08/12 01:42:43;;;;;;;8.93;6.20;;;;;;;;;;4884875;29;20280;-82
2021/08/12 01:45:09;;;;;;;10.45;7.07;;;;;;;;;;4880129;29;20051;-81
2021/08/12 01:47:35;;;;;;;8.73;5.95;;;;;;;;;;4881217;29;20021;-82
2021/08/12 01:50:04;;;;;;;12.35;6.43;;;;;;;;;;4886272;29;20435;-82
2021/08/12 01:52:31;;;;;;;10.40;6.53;;;;;;;;;;4887679;29;20496;-83
2021/08/12 01:54:57;;;;;;;8.98;5.78;;;;;;;;;;4888516;29;20393;-83
2021/08/12 01:57:22;;;;;;;9.50;5.45;;;;;;;;;;4887387;29;20034;-82
2021/08/12 01:59:48;;;;;;;9.65;6.03;;;;;;;;;;4879008;29;20029;-84
2021/08/12 02:02:14;;;;;;;7.40;5.22;;;;;;;;;;4887072;29;20028;-83
2021/08/12 02:04:39;;;;;;;13.05;6.60;;;;;;;;;;4887269;29;20107;-82
2021/08/12 02:07:06;;;;;;;8.88;5.68;;;;;;;;;;4881601;29;20021;-83
2021/08/12 02:09:31;;;;;;;11.77;7.03;;;;;;;;;;4885684;29;20485;-83
2021/08/12 02:11:57;;;;;;;9.85;5.57;;;;;;;;;;4886367;29;20025;-83
2021/08/12 02:14:22;;;;;;;9.57;6.35;;;;;;;;;;4883805;29;20135;-83
2021/08/12 02:16:47;;;;;;;10.30;6.00;;;;;;;;;;4889438;29;20084;-83
2021/08/12 02:19:13;;;;;;;9.85;5.45;;;;;;;;;;4886011;29;20480;-82
2021/08/12 02:21:42;;;;;;;13.45;6.45;;;;;;;;;;4893707;29;20021;-81
2021/08/12 02:24:12;;;;;;;8.88;5.25;;;;;;;;;;4880406;29;20353;-82
2021/08/12 02:26:40;;;;;;;8.38;5.80;;;;;;;;;;4887266;29;20349;-83
2021/08/12 02:29:06;;;;;;;9.73;6.32;;;;;;;;;;4881975;29;20372;-82
2021/08/12 02:31:32;;;;;;;8.65;5.78;;;;;;;;;;4882088;29;20379;-83
2021/08/12 02:33:59;;;;;;;10.98;5.57;;;;;;;;;;4882548;29;20028;-83
2021/08/12 02:36:25;;;;;;;7.80;5.03;;;;;;;;;;4880715;29;20389;-82
2021/08/12 02:38:52;;;;;;;8.65;5.60;;;;;;;;;;4883500;29;20021;-83
2021/08/12 02:41:18;;;;;;;8.73;5.50;;;;;;;;;;4884764;29;20444;-83
2021/08/12 02:43:44;;;;;;;10.57;5.97;;;;;;;;;;4886218;29;20025;-82
2021/08/12 02:46:10;;;;;;;8.77;5.45;;;;;;;;;;4879737;29;20433;-83
2021/08/12 02:48:36;;;;;;;10.40;6.22;;;;;;;;;;4887856;29;20051;-82
2021/08/12 02:51:03;;;;;;;9.50;5.95;;;;;;;;;;4882010;29;20032;-83
2021/08/12 02:53:29;;;;;;;7.32;5.55;;;;;;;;;;4884483;29;20109;-83
2021/08/12 02:55:55;;;;;;;8.52;5.35;;;;;;;;;;4886106;29;20440;-83
2021/08/12 02:58:21;;;;;;;10.35;6.05;;;;;;;;;;4887022;29;20013;-82
2021/08/12 03:00:46;;;;;;;9.45;5.32;;;;;;;;;;4885548;29;20031;-81
2021/08/12 03:03:12;;;;;;;7.18;5.00;;;;;;;;;;4884355;29;20128;-81
2021/08/12 03:05:40;;;;;;;9.48;5.47;;;;;;;;;;4887983;29;20357;-83
2021/08/12 03:08:06;;;;;;;8.77;5.80;;;;;;;;;;4886892;29;20079;-81
2021/08/12 03:10:32;;;;;;;9.68;5.75;;;;;;;;;;4886584;29;20048;-82
2021/08/12 03:12:59;;;;;;;10.13;5.55;;;;;;;;;;4892984;29;20056;-82
2021/08/12 03:15:26;;;;;;;10.40;6.70;;;;;;;;;;4889244;29;20455;-83
2021/08/12 03:17:52;;;;;;;11.07;5.57;;;;;;;;;;4881508;29;20408;-83
2021/08/12 03:20:18;;;;;;;10.00;6.25;;;;;;;;;;4878578;29;20681;-82
2021/08/12 03:22:43;;;;;;;10.80;6.32;;;;;;;;;;4881525;29;20021;-81
2021/08/12 03:25:09;;;;;;;8.47;5.70;;;;;;;;;;4884786;29;20060;-81
2021/08/12 03:27:35;;;;;;;9.70;6.43;;;;;;;;;;4885655;29;20629;-81
2021/08/12 03:30:00;;;;;;;7.95;5.50;;;;;;;;;;4878691;29;20032;-82
2021/08/12 03:32:25;;;;;;;8.05;5.40;;;;;;;;;;4883968;29;20032;-82
2021/08/12 03:34:51;;;;;;;10.82;6.13;;;;;;;;;;4884203;29;20040;-82
2021/08/12 03:37:17;;;;;;;10.40;5.68;;;;;;;;;;4883298;29;20037;-82
2021/08/12 03:39:42;;;;;;;6.80;5.05;;;;;;;;;;4885855;29;20384;-82
2021/08/12 03:42:08;;;;;;;9.32;4.93;;;;;;;;;;4888672;29;20023;-82
2021/08/12 03:44:33;;;;;;;7.72;6.00;;;;;;;;;;4887031;29;20029;-82
2021/08/12 03:46:58;;;;;;;10.53;6.90;;;;;;;;;;4874424;29;20036;-83
2021/08/12 03:49:24;;;;;;;10.30;5.63;;;;;;;;;;4888344;29;20028;-82
2021/08/12 03:51:49;;;;;;;8.20;5.77;;;;;;;;;;4878620;29;20288;-82
2021/08/12 03:54:14;;;;;;;12.27;6.55;;;;;;;;;;4883333;29;20269;-83
2021/08/12 03:56:39;;;;;;;9.10;5.87;;;;;;;;;;4877943;29;20056;-83
2021/08/12 03:59:05;;;;;;;9.53;6.00;;;;;;;;;;4883220;29;20289;-82
2021/08/12 04:01:31;;;;;;;10.68;6.55;;;;;;;;;;4879850;29;20108;-82
2021/08/12 04:03:56;;;;;;;10.43;6.40;;;;;;;;;;4879398;29;20053;-83
2021/08/12 04:06:21;;;;;;;10.83;5.90;;;;;;;;;;4887434;29;20044;-83
2021/08/12 04:08:46;;;;;;;11.87;5.93;;;;;;;;;;4884669;29;20288;-82
2021/08/12 04:11:12;;;;;;;8.88;6.00;;;;;;;;;;4879429;29;20032;-83
2021/08/12 04:13:37;;;;;;;9.90;6.07;;;;;;;;;;4879659;29;20108;-82
2021/08/12 04:16:03;;;;;;;10.35;6.35;;;;;;;;;;4879775;29;20060;-83
2021/08/12 04:18:28;;;;;;;9.18;6.13;;;;;;;;;;4882879;29;20020;-83
2021/08/12 04:20:54;;;;;;;12.52;6.70;;;;;;;;;;4884617;29;20033;-83
2021/08/12 04:23:19;;;;;;;9.23;6.10;;;;;;;;;;4886863;29;20032;-83
2021/08/12 04:25:45;;;;;;;9.57;6.55;;;;;;;;;;4885981;29;20441;-82
2021/08/12 04:28:11;;;;;;;9.88;5.95;;;;;;;;;;4885140;29;20464;-82
2021/08/12 04:30:36;;;;;;;11.02;5.80;;;;;;;;;;4882042;29;20061;-83
2021/08/12 04:33:01;;;;;;;12.00;6.17;;;;;;;;;;4887055;29;20021;-83
2021/08/12 04:35:27;;;;;;;9.07;5.85;;;;;;;;;;4883148;29;20281;-84
2021/08/12 04:37:52;;;;;;;12.73;6.93;;;;;;;;;;4879822;29;20097;-86
2021/08/12 04:40:18;;;;;;;12.07;5.88;;;;;;;;;;4885049;29;20285;-83
2021/08/12 04:42:45;;;;;;;13.27;6.53;;;;;;;;;;4888878;29;20452;-85
2021/08/12 04:45:11;;;;;;;10.75;5.63;;;;;;;;;;4884657;29;20290;-86
2021/08/12 04:47:36;;;;;;;9.23;6.50;;;;;;;;;;4892336;29;20039;-85
2021/08/12 04:50:02;;;;;;;11.85;5.85;;;;;;;;;;4875295;29;20088;-86
2021/08/12 04:52:28;;;;;;;12.35;6.97;;;;;;;;;;4878363;29;20107;-84
2021/08/12 04:54:53;;;;;;;10.57;6.25;;;;;;;;;;4886679;29;20025;-83
2021/08/12 04:57:18;;;;;;;11.55;6.32;;;;;;;;;;4882387;29;20025;-84
2021/08/12 04:59:44;;;;;;;11.43;7.93;;;;;;;;;;4880636;29;20084;-85
2021/08/12 05:02:12;;;;;;;8.95;6.43;;;;;;;;;;4881860;29;20029;-83
2021/08/12 05:04:38;;;;;;;12.73;7.10;;;;;;;;;;4892337;29;20403;-85
2021/08/12 05:07:03;;;;;;;9.60;6.45;;;;;;;;;;4888713;29;20024;-86
2021/08/12 05:09:28;;;;;;;10.55;6.03;;;;;;;;;;4879068;29;20035;-83
2021/08/12 05:11:53;;;;;;;9.37;5.83;;;;;;;;;;4892930;29;20021;-86
2021/08/12 05:14:18;;;;;;;9.00;5.93;;;;;;;;;;4885957;29;20064;-84
2021/08/12 05:16:44;;;;;;;11.10;7.00;;;;;;;;;;4887534;29;20052;-86
2021/08/12 05:19:09;;;;;;;10.70;6.72;;;;;;;;;;4880467;29;20357;-84
2021/08/12 05:21:34;;;;;;;10.40;5.95;;;;;;;;;;4865457;29;20025;-82
2021/08/12 05:24:00;;;;;;;11.20;6.47;;;;;;;;;;4879588;29;20025;-87
2021/08/12 05:26:25;;;;;;;13.02;6.78;;;;;;;;;;4877714;29;20289;-82
2021/08/12 05:28:50;;;;;;;10.57;6.03;;;;;;;;;;4879842;29;20064;-82
2021/08/12 05:31:16;;;;;;;10.95;6.47;;;;;;;;;;4877972;29;20032;-82
2021/08/12 05:33:41;;;;;;;10.67;6.57;;;;;;;;;;4870109;29;20025;-83
2021/08/12 05:36:08;;;;;;;12.32;6.40;;;;;;;;;;4873559;29;20266;-83
2021/08/12 05:38:33;;;;;;;11.40;6.50;;;;;;;;;;4877972;29;20232;-83
2021/08/12 05:40:59;;;;;;;8.43;6.43;;;;;;;;;;4881831;29;20052;-84
2021/08/12 05:43:25;;;;;;;11.63;6.30;;;;;;;;;;4880594;29;20025;-83
2021/08/12 05:45:51;;;;;;;9.25;6.50;;;;;;;;;;4874972;29;20375;-82
2021/08/12 05:48:16;;;;;;;9.68;7.35;;;;;;;;;;4876130;29;20029;-82
2021/08/12 05:50:45;;;;;;;23.25;14.20;;;;;;;;;;4880339;29;20028;-81
2021/08/12 05:53:11;;;;;;;16.27;9.00;;;;;;;;;;4876020;29;21665;-82
2021/08/12 05:55:37;;;;;;;9.45;6.05;;;;;;;;;;4880711;29;20029;-81
2021/08/12 05:58:02;;;;;;;8.60;6.47;;;;;;;;;;4862122;29;20085;-85
2021/08/12 06:00:27;;;;;;;9.57;6.05;;;;;;;;;;4879764;29;20033;-85
2021/08/12 06:02:53;;;;;;;12.93;6.97;;;;;;;;;;4873537;29;20207;-81
2021/08/12 06:05:18;;;;;;;11.50;6.55;;;;;;;;;;4877825;29;20032;-83
2021/08/12 06:07:43;;;;;;;13.47;6.93;;;;;;;;;;4877940;29;20031;-82
2021/08/12 06:10:09;;;;;;;12.27;5.97;;;;;;;;;;4880894;29;20037;-83
2021/08/12 06:12:34;;;;;;;10.70;6.38;;;;;;;;;;4876991;29;20289;-85
2021/08/12 06:14:59;;;;;;;10.80;5.70;;;;;;;;;;4884050;29;20036;-85
2021/08/12 06:17:25;;;;;;;11.20;6.05;;;;;;;;;;4880792;29;20028;-83
2021/08/12 06:19:50;;;;;;;13.13;5.97;;;;;;;;;;4878220;29;20017;-83
2021/08/12 06:22:15;;;;;;;11.77;6.83;;;;;;;;;;4886839;29;20024;-83
2021/08/12 06:24:40;;;;;;;10.87;6.87;;;;;;;;;;4881454;29;20088;-82
2021/08/12 06:27:06;;;;;;;12.98;5.90;;;;;;;;;;4880584;29;20073;-85
2021/08/12 06:29:31;;;;;;;10.80;6.45;;;;;;;;;;4878449;29;20025;-83
2021/08/12 06:31:56;;;;;;;13.02;7.75;;;;;;;;;;4877022;29;20150;-82
2021/08/12 06:34:22;;;;;;;16.57;10.70;;;;;;;;;;4878134;29;20063;-82
2021/08/12 06:36:47;;;;;;;11.63;7.13;;;;;;;;;;4878883;29;20761;-84
2021/08/12 06:39:12;;;;;;;11.00;6.32;;;;;;;;;;4883006;29;20025;-82
2021/08/12 06:41:38;;;;;;;9.48;6.70;;;;;;;;;;4882610;29;20489;-83
2021/08/12 06:44:04;;;;;;;9.07;5.93;;;;;;;;;;4885348;29;20484;-83
2021/08/12 06:46:29;;;;;;;8.90;6.00;;;;;;;;;;4883920;29;20031;-83
2021/08/12 06:48:54;;;;;;;11.35;6.40;;;;;;;;;;4885936;29;20116;-87
2021/08/12 06:51:19;;;;;;;11.03;5.77;;;;;;;;;;4884645;29;20052;-86
2021/08/12 06:53:45;;;;;;;8.60;5.63;;;;;;;;;;4882034;29;20613;-83
2021/08/12 06:56:10;;;;;;;10.17;6.80;;;;;;;;;;4878199;29;20052;-84
2021/08/12 06:58:35;;;;;;;14.30;6.10;;;;;;;;;;4877776;29;20337;-83
2021/08/12 07:01:01;;;;;;;11.45;6.78;;;;;;;;;;4863438;29;20029;-84
2021/08/12 07:03:26;;;;;;;9.53;5.93;;;;;;;;;;4876615;29;20042;-82
2021/08/12 07:05:52;;;;;;;14.40;6.18;;;;;;;;;;4880538;29;20058;-79
2021/08/12 07:08:17;;;;;;;11.57;6.05;;;;;;;;;;4877628;29;20037;-79
2021/08/12 07:10:43;;;;;;;13.93;6.20;;;;;;;;;;4882345;29;20036;-80
2021/08/12 07:13:08;;;;;;;24.00;19.73;;;;;;;;;;4883294;29;20036;-80
2021/08/12 07:15:33;;;;;;;15.23;11.27;;;;;;;;;;4878154;29;20032;-79
2021/08/12 07:17:59;;;;;;;10.93;6.90;;;;;;;;;;4879321;29;20036;-81
2021/08/12 07:20:25;;;;;;;17.10;6.30;;;;;;;;;;4880252;29;20773;-81
2021/08/12 07:22:50;;;;;;;11.10;5.97;;;;;;;;;;4881698;29;20103;-81
2021/08/12 07:25:15;;;;;;;15.48;5.47;;;;;;;;;;4882498;29;20082;-81
2021/08/12 07:27:41;;;;;;;11.90;5.85;;;;;;;;;;4883534;29;20036;-81
2021/08/12 07:30:07;;;;;;;11.97;7.53;;;;;;;;;;4882544;29;20028;-82
2021/08/12 07:32:32;;;;;;;10.70;6.20;;;;;;;;;;4881535;29;20625;-82
2021/08/12 07:34:58;;;;;;;14.60;6.35;;;;;;;;;;4888550;29;20035;-82
2021/08/12 07:37:23;;;;;;;10.77;5.70;;;;;;;;;;4880434;29;20116;-82
2021/08/12 07:39:48;;;;;;;10.17;6.07;;;;;;;;;;4881281;29;20032;-83
2021/08/12 07:42:19;;;;;;;15.38;6.75;;;;;;;;;;4883133;29;20294;-82
2021/08/12 07:44:44;;;;;;;8.55;5.65;;;;;;;;;;4885160;29;20021;-82
2021/08/12 07:47:09;;;;;;;9.15;5.57;;;;;;;;;;4884661;29;20427;-82
2021/08/12 07:49:34;;;;;;;8.90;5.23;;;;;;;;;;4880596;29;20460;-82
2021/08/12 07:52:00;;;;;;;8.87;5.60;;;;;;;;;;4867461;29;20036;-82
2021/08/12 07:54:25;;;;;;;8.87;5.17;;;;;;;;;;4890392;29;20304;-81
2021/08/12 07:56:50;;;;;;;9.33;5.77;;;;;;;;;;4882387;29;20648;-81
2021/08/12 07:59:15;;;;;;;36.77;33.27;;;;;;;;;;4881972;29;20293;-82
2021/08/12 08:01:41;;;;;;;13.52;9.52;;;;;;;;;;4886662;29;20152;-80
2021/08/12 08:04:06;;;;;;;10.63;6.17;;;;;;;;;;4884757;29;20049;-81
2021/08/12 08:06:31;;;;;;;9.47;6.13;;;;;;;;;;4882585;29;20024;-81
2021/08/12 08:08:57;;;;;;;11.37;5.97;;;;;;;;;;4880053;29;20025;-81
2021/08/12 08:11:22;;;;;;;8.40;5.17;;;;;;;;;;4885191;29;20033;-82
2021/08/12 08:13:47;;;;;;;10.17;5.90;;;;;;;;;;4888055;29;20040;-83
2021/08/12 08:16:13;;;;;;;11.68;5.93;;;;;;;;;;4878370;29;20771;-83
2021/08/12 08:18:39;;;;;;;10.25;5.65;;;;;;;;;;4880624;29;20021;-83
2021/08/12 08:21:04;;;;;;;7.95;5.28;;;;;;;;;;4892999;29;20039;-82
2021/08/12 08:23:29;;;;;;;13.30;5.80;;;;;;;;;;4891926;29;20029;-82
2021/08/12 08:25:55;;;;;;;11.40;5.47;;;;;;;;;;4881381;29;20036;-82
2021/08/12 08:28:20;;;;;;;8.82;5.20;;;;;;;;;;4882413;29;20847;-82
2021/08/12 08:30:45;;;;;;;9.10;5.30;;;;;;;;;;4877375;29;20077;-82
2021/08/12 08:33:14;;;;;;;9.70;5.30;;;;;;;;;;4881457;29;20032;-81
2021/08/12 08:35:39;;;;;;;7.73;5.07;;;;;;;;;;4879401;29;20488;-83
2021/08/12 08:38:04;;;;;;;10.50;5.07;;;;;;;;;;4874538;29;20201;-81
2021/08/12 08:40:30;;;;;;;8.95;5.22;;;;;;;;;;4872792;29;20040;-81
2021/08/12 08:42:55;;;;;;;11.55;6.10;;;;;;;;;;4882101;29;20697;-81
2021/08/12 08:45:23;;;;;;;9.45;5.38;;;;;;;;;;4887220;29;20502;-81
2021/08/12 08:47:53;;;;;;;10.57;5.22;;;;;;;;;;4882527;29;20564;-80
2021/08/12 08:50:19;;;;;;;9.18;5.80;;;;;;;;;;4891162;29;20612;-81
2021/08/12 08:52:45;;;;;;;8.05;5.43;;;;;;;;;;4882451;29;20028;-81
2021/08/12 08:55:16;;;;;;;10.77;5.43;;;;;;;;;;4875610;29;20573;-81
2021/08/12 08:57:42;;;;;;;7.75;5.68;;;;;;;;;;4884202;29;20029;-81
2021/08/12 09:00:08;;;;;;;7.05;5.13;;;;;;;;;;4878383;29;20116;-81
2021/08/12 09:02:34;;;;;;;17.02;15.02;;;;;;;;;;4876266;29;20029;-81
2021/08/12 09:04:59;;;;;;;11.75;8.13;;;;;;;;;;4877891;29;20124;-80
2021/08/12 09:07:24;;;;;;;17.60;6.80;;;;;;;;;;4876932;29;20370;-81
2021/08/12 09:09:49;;;;;;;9.50;6.40;;;;;;;;;;4875651;29;20112;-83
2021/08/12 09:12:15;;;;;;;10.90;7.07;;;;;;;;;;4877750;29;20037;-83
2021/08/12 09:14:41;;;;;;;10.70;6.00;;;;;;;;;;4878281;29;20024;-82
2021/08/12 09:17:18;;;;;;;10.52;6.95;;;;;;;;;;4879132;29;20701;-82
2021/08/12 09:19:59;;;;;;;9.32;5.15;;;;;;;;;;4879544;29;20681;-80
2021/08/12 09:22:25;;;;;;;10.93;6.53;;;;;;;;;;4878933;29;20092;-83
2021/08/12 09:24:50;;;;;;;9.90;5.43;;;;;;;;;;4876998;29;20029;-83
2021/08/12 09:27:22;;;;;;;8.20;5.70;;;;;;;;;;4876993;29;20024;-81
2021/08/12 09:29:48;;;;;;;14.20;9.20;;;;;;;;;;4876252;29;20108;-82
2021/08/12 09:32:15;;;;;;;9.07;6.13;;;;;;;;;;4876757;29;20073;-82
2021/08/12 09:34:44;;;;;;;8.15;5.53;;;;;;;;;;4882872;29;20466;-81
2021/08/12 09:37:10;;;;;;;;;;;;;;;;;;4880168;29;20300;-82
2021/08/12 09:39:36;;;;;;;11.30;6.33;;;;;;;;;;4881727;29;19961;-81
2021/08/12 09:42:03;;;;;;;11.38;7.03;;;;;;;;;;4882017;29;20021;-82
2021/08/12 09:44:36;;;;;;;18.02;10.18;;;;;;;;;;4886426;29;20225;-82
2021/08/12 09:47:05;;;;;;;17.88;8.65;;;;;;;;;;4878737;29;20100;-81
2021/08/12 09:49:37;;;;;;;18.65;12.07;;;;;;;;;;4884759;29;20410;-80
2021/08/12 09:52:20;;;;;;;46.88;28.15;;;;;;;;;;4887981;29;20428;-79
2021/08/12 09:54:45;;;;;;;19.35;11.77;;;;;;;;;;4873451;29;20454;-80
2021/08/12 09:57:17;;;;;;;49.30;33.53;;;;;;;;;;4875040;29;20017;-80
2021/08/12 09:59:50;;;;;;;30.05;15.32;;;;;;;;;;4875214;29;20223;-80
2021/08/12 10:02:15;;;;;;;20.23;14.10;;;;;;;;;;4873252;29;20017;-80
2021/08/12 10:04:40;;;;;;;21.25;15.02;;;;;;;;;;4876889;29;20034;-80
2021/08/12 10:07:06;;;;;;;10.57;5.70;;;;;;;;;;4875629;29;20511;-81
2021/08/12 10:09:43;;;;;;;24.63;18.67;;;;;;;;;;4875240;29;20032;-80
2021/08/12 10:12:09;;;;;;;21.55;14.50;;;;;;;;;;4878550;29;20277;-81
2021/08/12 10:14:34;;;;;;;23.92;15.85;;;;;;;;;;4881263;29;20345;-81
2021/08/12 10:17:00;;;;;;;20.17;14.77;;;;;;;;;;4878458;29;20032;-81
2021/08/12 10:19:25;;;;;;;23.08;15.18;;;;;;;;;;4873961;29;20115;-80
2021/08/12 10:21:51;;;;;;;10.98;6.28;;;;;;;;;;4878806;29;20029;-79
2021/08/12 10:24:18;;;;;;;19.33;11.27;;;;;;;;;;4880992;29;20036;-79
2021/08/12 10:26:45;;;;;;;15.50;10.30;;;;;;;;;;4880713;29;20729;-80
2021/08/12 10:29:12;;;;;;;15.98;11.25;;;;;;;;;;4878812;29;20517;-79
2021/08/12 10:31:38;;;;;;;14.30;8.93;;;;;;;;;;4881069;29;20441;-79
2021/08/12 10:34:04;;;;;;;9.80;5.28;;;;;;;;;;4880443;29;20032;-79
2021/08/12 10:36:29;;;;;;;14.43;11.93;;;;;;;;;;4883914;29;20039;-80
2021/08/12 10:38:55;;;;;;;12.60;9.85;;;;;;;;;;4885062;29;20095;-80
2021/08/12 10:41:20;;;;;;;10.27;8.38;;;;;;;;;;4885416;29;20033;-80
2021/08/12 10:43:47;;;;;;;11.20;7.65;;;;;;;;;;4875409;29;20515;-81
2021/08/12 10:46:12;;;;;;;14.38;7.40;;;;;;;;;;4881142;29;20112;-80
2021/08/12 10:48:37;;;;;;;8.68;6.72;;;;;;;;;;4889805;29;20113;-80
2021/08/12 10:51:07;;;;;;;11.40;7.18;;;;;;;;;;4884717;29;20235;-80
2021/08/12 10:53:33;;;;;;;9.27;6.50;;;;;;;;;;4882465;29;20031;-79
2021/08/12 10:56:05;;;;;;;12.02;7.30;;;;;;;;;;4889883;29;20024;-80
2021/08/12 10:58:31;;;;;;;8.65;5.93;;;;;;;;;;4891378;29;20047;-80
2021/08/12 11:00:57;;;;;;;10.95;6.25;;;;;;;;;;4885683;29;20631;-79
2021/08/12 11:03:31;;;;;;;9.07;5.55;;;;;;;;;;4883333;29;20184;-79
2021/08/12 11:06:03;;;;;;;8.70;5.90;;;;;;;;;;4887372;29;20033;-80
2021/08/12 11:08:47;;;;;;;8.18;6.18;;;;;;;;;;4885502;29;20156;-80
2021/08/12 11:11:12;;;;;;;10.00;6.07;;;;;;;;;;4879622;29;20530;-80
2021/08/12 11:13:38;;;;;;;9.77;5.83;;;;;;;;;;4871840;29;20033;-81
2021/08/12 11:16:03;;;;;;;7.93;6.03;;;;;;;;;;4880196;29;20049;-81
2021/08/12 11:18:48;;;;;;;10.35;6.18;;;;;;;;;;4885797;29;20029;-82
2021/08/12 11:21:31;;;;;;;11.88;5.88;;;;;;;;;;4880028;29;20033;-81
2021/08/12 11:24:01;;;;;;;9.40;5.70;;;;;;;;;;4878588;29;20380;-81
2021/08/12 11:26:47;;;;;;;7.40;5.70;;;;;;;;;;4889534;29;20444;-82
2021/08/12 11:31:52;;;;;;;10.02;6.28;;;;;;;;;;4880499;29;20039;-81
2021/08/12 11:34:27;;;;;;;8.45;5.45;;;;;;;;;;4879255;29;20013;-80
2021/08/12 11:37:06;;;;;;;11.52;5.90;;;;;;;;;;4880073;29;20392;-81
2021/08/12 11:39:31;;;;;;;9.57;6.07;;;;;;;;;;4880373;29;20084;-82
2021/08/12 11:41:57;;;;;;;8.77;5.97;;;;;;;;;;4879490;29;20567;-81
2021/08/12 11:44:22;;;;;;;8.02;5.53;;;;;;;;;;4882316;29;20107;-82
2021/08/12 11:46:48;;;;;;;7.80;5.65;;;;;;;;;;4873921;29;20035;-83
2021/08/12 11:49:18;;;;;;;8.40;5.47;;;;;;;;;;4879570;29;20040;-83
2021/08/12 11:51:44;;;;;;;9.00;6.70;;;;;;;;;;4877581;29;20377;-83
2021/08/12 11:54:10;;;;;;;9.70;6.35;;;;;;;;;;4874225;29;20693;-81
2021/08/12 11:56:37;;;;;;;8.15;5.75;;;;;;;;;;4879841;29;20112;-83
2021/08/12 11:59:02;;;;;;;8.50;6.18;;;;;;;;;;4878851;29;20025;-81
2021/08/12 12:01:37;;;;;;;11.13;6.45;;;;;;;;;;4879995;29;20515;-82
2021/08/12 12:04:06;;;;;;;7.53;5.65;;;;;;;;;;4885283;29;20071;-81
2021/08/12 12:06:35;;;;;;;7.82;6.43;;;;;;;;;;4880895;29;20781;-80
2021/08/12 12:09:29;;;;;;;10.85;6.25;;;;;;;;;;4881446;29;20021;-81
2021/08/12 12:11:56;;;;;;;9.82;6.35;;;;;;;;;;4865284;29;20029;-80
2021/08/12 12:14:26;;;;;;;11.52;5.78;;;;;;;;;;4884966;29;20055;-80
2021/08/12 12:17:06;;;;;;;8.95;6.03;;;;;;;;;;4878560;29;20021;-82
2021/08/12 12:19:32;;;;;;;12.40;6.40;;;;;;;;;;4873290;29;20883;-81
2021/08/12 12:21:57;;;;;;;9.27;6.18;;;;;;;;;;4877151;29;20100;-85
2021/08/12 12:24:22;;;;;;;8.82;5.85;;;;;;;;;;4876058;29;20070;-85
2021/08/12 12:26:54;;;;;;;14.43;6.18;;;;;;;;;;4878897;29;20025;-83
2021/08/12 12:29:20;;;;;;;9.45;5.80;;;;;;;;;;4880230;29;20608;-83
2021/08/12 12:32:01;;;;;;;8.23;6.27;;;;;;;;;;4878740;29;20165;-83
2021/08/12 12:34:27;;;;;;;11.30;7.40;;;;;;;;;;4878336;29;20916;-84
2021/08/12 12:36:52;;;;;;;9.30;6.97;;;;;;;;;;4886458;29;20115;-83
2021/08/12 12:39:21;;;;;;;10.57;6.90;;;;;;;;;;4883752;29;20040;-85
2021/08/12 12:41:47;;;;;;;8.60;5.72;;;;;;;;;;4879685;29;20402;-83
2021/08/12 12:44:14;;;;;;;9.65;6.38;;;;;;;;;;4878782;29;20029;-82
2021/08/12 12:46:39;;;;;;;8.73;6.40;;;;;;;;;;4883124;29;20111;-84
2021/08/12 12:49:23;;;;;;;12.90;7.00;;;;;;;;;;4888980;29;20571;-82
2021/08/12 12:51:49;;;;;;;9.98;6.93;;;;;;;;;;4880012;29;20099;-85
2021/08/12 12:54:14;;;;;;;10.32;6.53;;;;;;;;;;4881827;29;20328;-83
2021/08/12 12:56:42;;;;;;;9.57;6.80;;;;;;;;;;4882449;29;20028;-83
2021/08/12 12:59:13;;;;;;;9.57;6.50;;;;;;;;;;4883840;29;20594;-87
2021/08/12 13:01:38;;;;;;;10.68;7.53;;;;;;;;;;4881127;29;20563;-88
2021/08/12 13:04:04;;;;;;;8.93;6.55;;;;;;;;;;4877689;29;20041;-85
2021/08/12 13:06:33;;;;;;;10.57;6.30;;;;;;;;;;4879949;29;20065;-84
2021/08/12 13:08:59;;;;;;;8.20;6.82;;;;;;;;;;4880540;29;20421;-84
2021/08/12 13:11:28;;;;;;;10.07;6.07;;;;;;;;;;4879259;29;20036;-85
2021/08/12 13:13:54;;;;;;;9.02;5.80;;;;;;;;;;4876315;29;20029;-85
2021/08/12 13:16:36;;;;;;;10.13;6.33;;;;;;;;;;4886244;29;20534;-85
2021/08/12 13:19:01;;;;;;;14.15;11.00;;;;;;;;;;4882456;29;20056;-84
2021/08/12 13:21:28;;;;;;;11.32;7.72;;;;;;;;;;4877216;29;20052;-84
2021/08/12 13:23:55;;;;;;;11.45;8.23;;;;;;;;;;4877538;29;20025;-84
2021/08/12 13:26:29;;;;;;;13.68;8.15;;;;;;;;;;4877687;29;20349;-87
2021/08/12 13:29:21;;;;;;;10.45;6.50;;;;;;;;;;4882929;29;20055;-88
2021/08/12 13:31:50;;;;;;;11.05;7.95;;;;;;;;;;4878234;29;20025;-87
2021/08/12 13:34:16;;;;;;;10.80;6.57;;;;;;;;;;4880657;29;20710;-88
2021/08/12 13:36:42;;;;;;;11.05;7.03;;;;;;;;;;4880977;29;20553;-86
2021/08/12 13:39:08;;;;;;;10.77;7.03;;;;;;;;;;4883697;29;20385;-85
2021/08/12 13:41:47;;;;;;;9.00;6.53;;;;;;;;;;4886880;29;20439;-85
2021/08/12 13:44:13;;;;;;;9.02;6.68;;;;;;;;;;4880411;29;20032;-86
2021/08/12 13:46:38;;;;;;;12.75;7.43;;;;;;;;;;4885785;29;20020;-86
2021/08/12 13:49:04;;;;;;;10.65;6.38;;;;;;;;;;4886657;29;20033;-85
2021/08/12 13:51:30;;;;;;;9.95;7.18;;;;;;;;;;4886124;29;20020;-85
2021/08/12 13:53:56;;;;;;;13.90;11.50;;;;;;;;;;4881588;29;20536;-86
2021/08/12 13:56:21;;;;;;;9.05;7.15;;;;;;;;;;4882970;29;20400;-86
2021/08/12 13:58:47;;;;;;;9.50;6.93;;;;;;;;;;4888883;29;20025;-84
2021/08/12 14:01:12;;;;;;;13.13;8.20;;;;;;;;;;4882136;29;20540;-84
2021/08/12 14:03:37;;;;;;;9.93;7.85;;;;;;;;;;4882550;29;20033;-84
2021/08/12 14:06:03;;;;;;;9.57;7.63;;;;;;;;;;4893786;29;20020;-84
2021/08/12 14:08:28;;;;;;;9.32;7.43;;;;;;;;;;4888908;29;20032;-85
2021/08/12 14:10:55;;;;;;;10.45;7.35;;;;;;;;;;4880645;29;20033;-83
2021/08/12 14:13:20;;;;;;;10.90;7.53;;;;;;;;;;4894499;29;20254;-83
2021/08/12 14:15:46;;;;;;;10.10;6.93;;;;;;;;;;4882816;29;21306;-83
2021/08/12 14:18:11;;;;;;;10.70;7.30;;;;;;;;;;4880943;29;20123;-84
2021/08/12 14:20:36;;;;;;;11.02;7.55;;;;;;;;;;4881939;29;20057;-84
2021/08/12 14:23:02;;;;;;;11.80;7.20;;;;;;;;;;4885880;29;20024;-83
2021/08/12 14:25:27;;;;;;;9.18;6.45;;;;;;;;;;4879143;29;20116;-83
2021/08/12 14:27:52;;;;;;;10.77;7.30;;;;;;;;;;4890437;29;20490;-84
2021/08/12 14:30:18;;;;;;;12.13;7.20;;;;;;;;;;4876876;29;20484;-84
2021/08/12 14:32:43;;;;;;;9.80;6.97;;;;;;;;;;4879862;29;20044;-82
2021/08/12 14:35:09;;;;;;;10.73;6.97;;;;;;;;;;4879847;29;20033;-83
2021/08/12 14:37:34;;;;;;;8.32;6.65;;;;;;;;;;4880870;29;20112;-83